Time;durP1;ratioP1;P1;durP2;ratioP2;P2;SDS_P1;SDS_P2;PMS_P1;PMS_P2;Temp;Humidity;BMP_temperature;BMP_pressure;BME280_temperature;BME280_humidity;BME280_pressure;Samples;Min_cycle;Max_cycle;Signal;HPM_P1;HPM_P2
2022/08/01 00:00:19;;;;;;;4.30;3.30;;;;;;;21.41;59.69;100500.59;5047996;28;20061;-60
2022/08/01 00:02:46;;;;;;;7.47;3.65;;;;;;;21.36;59.35;100501.06;5059573;28;20074;-61
2022/08/01 00:05:14;;;;;;;5.57;3.35;;;;;;;21.36;59.52;100506.44;5050904;28;20048;-60
2022/08/01 00:07:41;;;;;;;5.30;3.47;;;;;;;21.34;59.75;100507.56;5037215;28;20051;-61
2022/08/01 00:10:10;;;;;;;4.50;3.10;;;;;;;21.30;60.46;100503.50;5051486;28;20080;-59
2022/08/01 00:12:38;;;;;;;5.47;3.75;;;;;;;21.31;60.13;100508.75;5057714;28;20378;-58
2022/08/01 00:15:07;;;;;;;4.25;3.47;;;;;;;21.28;60.64;100505.53;5046343;28;20050;-63
2022/08/01 00:17:35;;;;;;;7.82;3.80;;;;;;;21.21;61.15;100506.19;5047374;28;20083;-59
2022/08/01 00:20:04;;;;;;;6.10;3.33;;;;;;;21.21;61.34;100516.91;5058312;28;20061;-61
2022/08/01 00:22:32;;;;;;;4.32;3.08;;;;;;;21.17;62.11;100518.22;5051295;28;20041;-61
2022/08/01 00:24:59;;;;;;;3.85;3.25;;;;;;;21.13;62.42;100524.06;5046343;28;20057;-60
2022/08/01 00:27:27;;;;;;;4.38;3.05;;;;;;;21.04;63.46;100525.84;5042890;28;20511;-60
2022/08/01 00:29:54;;;;;;;4.97;3.45;;;;;;;21.01;64.26;100514.63;5049889;28;21136;-61
2022/08/01 00:32:43;;;;;;;3.55;3.13;;;;;;;20.98;64.93;100507.75;5049376;28;20057;-61
2022/08/01 00:35:11;;;;;;;6.72;3.65;;;;;;;20.91;66.00;100509.41;5051048;28;20052;-58
2022/08/01 00:37:38;;;;;;;4.32;3.40;;;;;;;20.91;65.98;100512.09;5055848;28;20647;-59
2022/08/01 00:40:06;;;;;;;4.63;3.42;;;;;;;20.90;67.26;100513.91;5052181;28;20440;-60
2022/08/01 00:42:33;;;;;;;6.70;3.45;;;;;;;20.86;68.12;100509.06;5056574;28;20048;-60
2022/08/01 00:45:06;;;;;;;4.35;3.10;;;;;;;20.85;68.24;100513.56;5051063;28;20578;-61
2022/08/01 00:47:33;;;;;;;6.72;3.33;;;;;;;20.84;69.51;100521.72;5047065;28;20053;-60
2022/08/01 00:50:03;;;;;;;5.53;2.85;;;;;;;20.81;70.36;100516.72;5049926;28;20067;-61
2022/08/01 00:52:31;;;;;;;4.85;3.50;;;;;;;20.69;72.00;100518.81;5050770;28;20041;-59
2022/08/01 00:54:58;;;;;;;4.57;3.55;;;;;;;20.64;72.40;100516.63;5056074;28;20539;-56
2022/08/01 00:57:25;;;;;;;3.88;3.10;;;;;;;20.62;72.37;100505.22;5047677;28;20409;-60
2022/08/01 01:00:13;;;;;;;3.92;3.28;;;;;;;20.60;72.52;100509.06;5056494;28;20059;-61
2022/08/01 01:02:41;;;;;;;3.40;3.08;;;;;;;20.58;72.87;100503.88;5055195;28;20143;-58
2022/08/01 01:05:08;;;;;;;6.78;3.53;;;;;;;20.56;73.06;100497.00;5047772;28;20477;-59
2022/08/01 01:07:47;;;;;;;5.65;3.53;;;;;;;20.52;73.46;100493.81;5057221;28;20309;-61
2022/08/01 01:10:25;;;;;;;7.65;3.45;;;;;;;20.52;73.45;100485.78;5049103;28;20060;-60
2022/08/01 01:13:04;;;;;;;5.00;3.55;;;;;;;20.53;74.22;100492.81;5059401;28;20057;-62
2022/08/01 01:15:41;;;;;;;4.22;2.97;;;;;;;20.47;74.57;100483.56;5051224;28;20532;-60
2022/08/01 01:18:13;;;;;;;4.68;3.65;;;;;;;20.45;75.40;100487.41;5057192;28;20064;-59
2022/08/01 01:20:43;;;;;;;4.60;3.08;;;;;;;20.37;76.49;100490.00;5058512;28;20052;-60
2022/08/01 01:23:38;;;;;;;4.75;3.30;;;;;;;20.34;76.48;100495.66;5051752;28;20068;-60
2022/08/01 01:26:23;;;;;;;7.90;3.72;;;;;;;20.30;76.69;100488.94;5050845;28;20080;-60
2022/08/01 01:29:12;;;;;;;6.32;3.60;;;;;;;20.27;77.06;100498.13;5055215;28;20057;-59
2022/08/01 01:31:46;;;;;;;3.70;3.08;;;;;;;20.24;77.66;100490.41;5052847;28;20131;-58
2022/08/01 01:34:15;;;;;;;8.13;3.80;;;;;;;20.24;77.58;100493.94;5053010;28;20513;-60
2022/08/01 01:36:44;;;;;;;6.68;3.67;;;;;;;20.20;77.96;100484.53;5059043;28;20418;-59
2022/08/01 01:39:11;;;;;;;7.97;3.60;;;;;;;20.21;78.04;100483.53;5062799;28;20098;-54
2022/08/01 01:41:38;;;;;;;5.57;3.80;;;;;;;20.22;78.31;100485.22;5051096;28;20049;-59
2022/08/01 01:44:06;;;;;;;5.70;3.70;;;;;;;20.21;78.17;100486.22;5053404;28;20056;-56
2022/08/01 01:46:34;;;;;;;4.05;3.63;;;;;;;20.21;78.35;100478.19;5056372;28;20060;-60
2022/08/01 01:49:01;;;;;;;6.78;3.78;;;;;;;20.21;79.07;100478.19;5048296;28;20057;-61
2022/08/01 01:51:29;;;;;;;6.13;4.60;;;;;;;20.17;78.97;100471.50;5043016;28;20049;-60
2022/08/01 01:53:57;;;;;;;4.22;3.83;;;;;;;20.12;79.65;100472.94;5055632;28;20088;-59
2022/08/01 01:56:25;;;;;;;5.10;3.78;;;;;;;20.09;79.34;100484.81;5044632;28;20053;-59
2022/08/01 01:58:59;;;;;;;3.90;3.60;;;;;;;20.04;80.07;100481.75;5045501;28;20045;-61
2022/08/01 02:01:29;;;;;;;5.75;4.05;;;;;;;20.02;80.37;100483.72;5046679;28;20053;-58
2022/08/01 02:04:17;;;;;;;5.15;3.60;;;;;;;19.96;80.66;100484.38;5059954;28;20056;-60
2022/08/01 02:06:46;;;;;;;4.03;3.38;;;;;;;19.92;80.97;100483.81;5053861;28;20541;-59
2022/08/01 02:09:17;;;;;;;4.55;3.33;;;;;;;19.87;81.46;100482.63;5050672;28;20147;-61
2022/08/01 02:11:48;;;;;;;4.65;3.95;;;;;;;19.84;81.62;100489.09;5056694;28;20037;-62
2022/08/01 02:14:35;;;;;;;4.22;3.55;;;;;;;19.81;81.82;100481.38;5055221;28;20844;-61
2022/08/01 02:17:03;;;;;;;5.38;4.03;;;;;;;19.81;82.05;100481.38;5056119;28;20056;-60
2022/08/01 02:19:33;;;;;;;3.83;3.30;;;;;;;19.80;81.72;100481.53;5058867;28;20044;-60
2022/08/01 02:22:09;;;;;;;5.65;3.63;;;;;;;19.77;81.53;100489.84;5054427;28;20056;-59
2022/08/01 02:24:40;;;;;;;7.35;3.92;;;;;;;19.73;81.88;100482.16;5047384;28;20049;-60
2022/08/01 02:27:12;;;;;;;5.35;3.80;;;;;;;19.70;81.76;100489.63;5052148;28;20060;-58
2022/08/01 02:29:52;;;;;;;5.00;3.65;;;;;;;19.70;81.82;100486.97;5056961;28;20525;-61
2022/08/01 02:32:24;;;;;;;6.80;3.58;;;;;;;19.65;82.84;100489.25;5055367;28;20106;-60
2022/08/01 02:34:52;;;;;;;6.07;4.30;;;;;;;19.59;84.14;100488.00;5049758;28;20063;-61
2022/08/01 02:37:20;;;;;;;4.35;3.70;;;;;;;19.56;83.63;100484.78;5056475;28;20057;-58
2022/08/01 02:39:50;;;;;;;5.78;3.42;;;;;;;19.54;83.88;100489.44;5043690;28;20654;-61
2022/08/01 02:42:18;;;;;;;3.97;3.33;;;;;;;19.51;83.90;100485.25;5052554;28;20079;-62
2022/08/01 02:44:47;;;;;;;6.80;4.63;;;;;;;19.46;84.71;100480.38;5053501;28;20059;-60
2022/08/01 02:47:15;;;;;;;4.90;3.75;;;;;;;19.43;85.07;100493.16;5055100;28;20056;-60
2022/08/01 02:49:45;;;;;;;5.45;3.88;;;;;;;19.43;85.26;100485.16;5058451;28;20052;-60
2022/08/01 02:52:21;;;;;;;4.93;3.80;;;;;;;19.39;86.47;100479.28;5055362;28;20053;-59
2022/08/01 02:54:51;;;;;;;8.50;4.20;;;;;;;19.39;86.32;100481.94;5049434;28;20354;-59
2022/08/01 02:57:19;;;;;;;6.85;4.05;;;;;;;19.37;87.21;100485.78;5055787;28;20052;-59
2022/08/01 02:59:47;;;;;;;6.93;4.38;;;;;;;19.36;87.38;100484.06;5049391;28;20624;-56
2022/08/01 03:02:16;;;;;;;7.20;3.95;;;;;;;19.31;87.68;100484.53;5050143;28;20064;-61
2022/08/01 03:04:44;;;;;;;4.95;4.10;;;;;;;19.35;87.71;100490.41;5035452;28;20056;-60
2022/08/01 03:07:12;;;;;;;5.93;3.50;;;;;;;19.36;87.66;100492.09;5057234;28;20644;-58
2022/08/01 03:09:43;;;;;;;4.25;3.85;;;;;;;19.36;87.12;100492.09;5053404;28;20044;-60
2022/08/01 03:12:18;;;;;;;5.72;4.00;;;;;;;19.35;nan;100491.25;5050732;28;20045;-59
2022/08/01 03:14:47;;;;;;;4.95;3.67;;;;;;;19.34;88.18;100496.75;5055922;28;20412;-57
2022/08/01 03:17:18;;;;;;;5.65;4.57;;;;;;;19.23;89.63;100495.97;5047102;28;20140;-60
2022/08/01 03:19:46;;;;;;;6.07;4.18;;;;;;;19.25;89.72;100492.31;5055387;28;20044;-61
2022/08/01 03:22:15;;;;;;;6.95;4.13;;;;;;;19.23;89.56;100493.31;5052976;28;20053;-56
2022/08/01 03:24:44;;;;;;;6.68;4.30;;;;;;;19.23;89.42;100493.31;5052716;28;20063;-60
2022/08/01 03:27:11;;;;;;;6.85;4.53;;;;;;;19.23;89.33;100490.63;5053115;28;20132;-60
2022/08/01 03:29:40;;;;;;;5.85;4.20;;;;;;;19.23;89.33;100495.97;5056579;28;20264;-60
2022/08/01 03:32:10;;;;;;;8.15;4.97;;;;;;;19.23;89.85;100495.97;5054706;28;20073;-60
2022/08/01 03:34:37;;;;;;;7.70;4.53;;;;;;;19.28;89.32;100505.38;5055257;28;20613;-59
2022/08/01 03:37:24;;;;;;;5.13;4.20;;;;;;;19.26;89.83;100502.81;5053666;28;20057;-62
2022/08/01 03:40:00;;;;;;;5.13;4.40;;;;;;;19.27;89.89;100501.00;5045569;28;20521;-61
2022/08/01 03:42:41;;;;;;;6.28;4.38;;;;;;;19.30;89.47;100500.69;5051830;28;20051;-59
2022/08/01 03:45:21;;;;;;;4.47;3.95;;;;;;;19.33;89.90;100505.75;5051601;28;20060;-58
2022/08/01 03:47:49;;;;;;;5.55;4.70;;;;;;;19.33;90.21;100506.59;5056744;28;20084;-58
2022/08/01 03:50:21;;;;;;;6.57;4.57;;;;;;;19.35;90.32;100506.44;5055010;28;20699;-59
2022/08/01 03:52:50;;;;;;;5.45;4.25;;;;;;;19.36;90.54;100511.63;5054030;28;20049;-60
2022/08/01 03:55:18;;;;;;;9.00;4.90;;;;;;;19.37;90.63;100515.97;5053365;28;20053;-60
2022/08/01 03:57:47;;;;;;;4.70;4.20;;;;;;;19.41;90.78;100517.34;5034943;28;20057;-60
2022/08/01 04:00:18;;;;;;;6.22;4.88;;;;;;;19.35;91.66;100511.75;5051071;28;20053;-59
2022/08/01 04:02:49;;;;;;;9.05;4.70;;;;;;;19.37;91.52;100510.63;5054634;28;20072;-61
2022/08/01 04:05:16;;;;;;;6.43;4.68;;;;;;;19.38;91.48;100511.47;5049142;28;20057;-58
2022/08/01 04:07:55;;;;;;;7.50;5.25;;;;;;;19.41;91.58;100517.34;5055535;28;20053;-59
2022/08/01 04:10:23;;;;;;;6.40;5.10;;;;;;;19.44;91.38;100513.53;5042719;28;20060;-60
2022/08/01 04:12:50;;;;;;;8.40;4.72;;;;;;;19.40;92.13;100507.66;5054618;28;20053;-59
2022/08/01 04:15:17;;;;;;;7.63;4.80;;;;;;;19.42;91.89;100510.19;5046522;28;20064;-59
2022/08/01 04:17:45;;;;;;;5.20;4.07;;;;;;;19.48;91.94;100512.25;5050618;28;20409;-60
2022/08/01 04:20:13;;;;;;;7.32;4.82;;;;;;;19.49;91.81;100511.25;5058037;28;20060;-61
2022/08/01 04:22:40;;;;;;;10.45;6.53;;;;;;;19.41;92.50;100512.03;5052502;28;20053;-61
2022/08/01 04:25:12;;;;;;;10.70;7.55;;;;;;;19.44;93.08;100518.88;5052044;28;20061;-60
2022/08/01 04:27:42;;;;;;;14.20;7.07;;;;;;;19.41;93.52;100517.34;5057598;28;20052;-60
2022/08/01 04:30:26;;;;;;;11.23;6.63;;;;;;;19.43;93.29;100515.38;5048089;28;20060;-61
2022/08/01 04:32:55;;;;;;;12.50;7.22;;;;;;;19.45;93.58;100513.41;5058459;28;20064;-60
2022/08/01 04:35:24;;;;;;;10.43;6.53;;;;;;;19.52;93.05;100513.63;5048356;28;20059;-60
2022/08/01 04:38:19;;;;;;;9.40;7.68;;;;;;;19.55;93.16;100518.66;5044638;28;20063;-60
2022/08/01 04:40:46;;;;;;;10.52;8.18;;;;;;;19.62;93.42;100517.09;5043389;28;20055;-60
2022/08/01 04:43:14;;;;;;;14.00;8.60;;;;;;;19.72;93.51;100525.03;5048302;28;20401;-58
2022/08/01 04:45:43;;;;;;;17.00;9.32;;;;;;;19.67;93.64;100525.47;5050065;28;20048;-61
2022/08/01 04:48:10;;;;;;;14.27;9.50;;;;;;;19.69;94.15;100536.88;5054665;28;20048;-59
2022/08/01 04:50:38;;;;;;;12.85;8.73;;;;;;;19.69;94.22;100525.34;5052619;28;20040;-57
2022/08/01 04:53:05;;;;;;;13.05;9.57;;;;;;;19.63;95.03;100525.94;5056647;28;20064;-61
2022/08/01 04:55:32;;;;;;;14.52;8.40;;;;;;;19.63;94.88;100529.47;5059759;28;20513;-58
2022/08/01 04:57:59;;;;;;;12.57;8.68;;;;;;;19.71;94.69;100529.53;5053467;28;20639;-60
2022/08/01 05:00:28;;;;;;;11.48;7.65;;;;;;;19.78;94.89;100536.97;5058121;28;20059;-61
2022/08/01 05:02:56;;;;;;;15.68;8.00;;;;;;;19.81;94.14;100531.28;5058944;28;20667;-61
2022/08/01 05:05:26;;;;;;;10.90;7.70;;;;;;;19.77;94.14;100533.44;5056279;28;20055;-59
2022/08/01 05:07:55;;;;;;;14.25;8.13;;;;;;;19.71;95.06;100534.88;5053530;28;20049;-57
2022/08/01 05:10:23;;;;;;;12.05;9.30;;;;;;;19.68;95.18;100535.19;5056904;28;20052;-61
2022/08/01 05:12:50;;;;;;;13.88;9.73;;;;;;;19.65;95.78;100542.66;5056991;28;20084;-59
2022/08/01 05:15:17;;;;;;;13.75;9.48;;;;;;;19.54;97.31;100535.66;5040162;28;20048;-60
2022/08/01 05:17:44;;;;;;;15.23;10.45;;;;;;;19.49;97.98;100540.63;5054150;28;20072;-61
2022/08/01 05:20:12;;;;;;;16.10;11.82;;;;;;;19.48;98.76;100545.13;5055757;28;20056;-62
2022/08/01 05:22:39;;;;;;;12.98;11.50;;;;;;;19.45;99.50;100545.44;5059038;28;20049;-58
2022/08/01 05:25:07;;;;;;;14.85;11.13;;;;;;;19.49;99.90;100546.78;5015596;28;20049;-58
2022/08/01 05:27:39;;;;;;;15.70;12.88;;;;;;;19.47;100.00;100538.09;5055672;28;20055;-58
2022/08/01 05:30:08;;;;;;;17.65;12.52;;;;;;;19.47;100.00;100545.28;5052220;28;20110;-60
2022/08/01 05:32:35;;;;;;;16.95;12.60;;;;;;;19.34;100.00;100536.78;5059379;28;20137;-60
2022/08/01 05:35:03;;;;;;;14.07;11.60;;;;;;;19.33;100.00;100548.47;5050844;28;20422;-61
2022/08/01 05:37:30;;;;;;;18.00;12.77;;;;;;;19.41;100.00;100543.22;5061687;28;20049;-59
2022/08/01 05:39:57;;;;;;;15.00;13.20;;;;;;;19.45;100.00;100539.22;5048114;28;20060;-60
2022/08/01 05:42:24;;;;;;;13.27;11.70;;;;;;;19.49;100.00;100532.59;5059066;28;20049;-61
2022/08/01 05:44:52;;;;;;;15.23;12.20;;;;;;;19.56;100.00;100540.88;5056341;28;20056;-61
2022/08/01 05:47:19;;;;;;;11.95;10.57;;;;;;;19.62;100.00;100541.13;5052348;28;20564;-61
2022/08/01 05:49:46;;;;;;;15.00;10.60;;;;;;;19.67;100.00;100546.84;5061335;28;20045;-59
2022/08/01 05:52:13;;;;;;;12.75;10.48;;;;;;;19.71;100.00;100545.56;5058579;28;20052;-61
2022/08/01 05:54:41;;;;;;;11.68;10.48;;;;;;;19.78;100.00;100547.66;5050890;28;20048;-61
2022/08/01 05:57:08;;;;;;;14.80;9.07;;;;;;;19.82;99.82;100555.19;5052103;28;20057;-60
2022/08/01 05:59:37;;;;;;;9.45;8.45;;;;;;;19.88;98.94;100556.41;5054369;28;20045;-58
2022/08/01 06:02:04;;;;;;;9.40;8.10;;;;;;;19.96;98.56;100553.84;5061551;28;20060;-59
2022/08/01 06:04:31;;;;;;;8.63;7.80;;;;;;;20.03;97.66;100560.22;5055187;28;20041;-59
2022/08/01 06:06:59;;;;;;;8.75;7.38;;;;;;;20.02;98.11;100557.72;5046465;28;20053;-56
2022/08/01 06:09:27;;;;;;;8.32;7.13;;;;;;;20.02;98.01;100557.72;5057314;28;20053;-57
2022/08/01 06:11:54;;;;;;;9.25;6.85;;;;;;;20.14;97.56;100561.84;5055817;28;20057;-57
2022/08/01 06:14:21;;;;;;;9.05;7.28;;;;;;;20.21;96.66;100562.88;5055593;28;20060;-58
2022/08/01 06:16:48;;;;;;;6.72;6.03;;;;;;;20.24;95.90;100566.09;5047383;28;20102;-60
2022/08/01 06:19:15;;;;;;;6.28;5.35;;;;;;;20.22;96.23;100569.94;5057331;28;20055;-59
2022/08/01 06:21:42;;;;;;;6.40;5.63;;;;;;;20.24;95.67;100565.25;5053704;28;20051;-56
2022/08/01 06:24:09;;;;;;;9.52;5.22;;;;;;;20.25;95.86;100569.59;5055791;28;20053;-58
2022/08/01 06:26:37;;;;;;;11.80;6.32;;;;;;;20.19;95.64;100573.75;5054060;28;20055;-59
2022/08/01 06:29:04;;;;;;;10.10;5.57;;;;;;;20.21;95.47;100571.75;5061080;28;20063;-58
2022/08/01 06:31:31;;;;;;;13.55;5.68;;;;;;;20.21;95.45;100573.56;5054962;28;20055;-59
2022/08/01 06:34:00;;;;;;;6.88;5.57;;;;;;;20.19;95.76;100581.75;5052404;28;20382;-59
2022/08/01 06:36:27;;;;;;;9.55;5.05;;;;;;;19.94;97.30;100570.00;5048565;28;20505;-57
2022/08/01 06:38:54;;;;;;;7.32;4.40;;;;;;;19.96;97.70;100572.53;5047230;28;20060;-59
2022/08/01 06:41:21;;;;;;;4.97;4.25;;;;;;;20.04;97.46;100569.94;5049338;28;20053;-59
2022/08/01 06:43:48;;;;;;;7.13;4.28;;;;;;;20.23;96.67;100569.78;5052338;28;20068;-59
2022/08/01 06:46:15;;;;;;;8.10;3.78;;;;;;;20.44;94.74;100569.44;5051594;28;20054;-60
2022/08/01 06:48:43;;;;;;;4.35;3.33;;;;;;;20.59;93.29;100576.94;5063152;28;20045;-60
2022/08/01 06:51:13;;;;;;;4.20;3.67;;;;;;;20.57;92.54;100571.72;5048525;28;20140;-60
2022/08/01 06:53:40;;;;;;;6.03;3.13;;;;;;;20.59;91.66;100574.25;5061134;28;20044;-60
2022/08/01 06:56:10;;;;;;;3.47;2.58;;;;;;;20.53;91.53;100570.34;5053282;28;20045;-59
2022/08/01 06:58:37;;;;;;;6.57;3.00;;;;;;;20.45;91.94;100576.47;5059738;28;20040;-60
2022/08/01 07:01:07;;;;;;;3.40;2.70;;;;;;;20.51;91.77;100571.53;5050290;28;20060;-59
2022/08/01 07:03:35;;;;;;;4.72;2.50;;;;;;;20.66;91.08;100577.97;5057430;28;20045;-60
2022/08/01 07:06:25;;;;;;;4.78;2.25;;;;;;;20.76;89.57;100575.19;5053859;28;20057;-60
2022/08/01 07:08:52;;;;;;;5.38;1.92;;;;;;;20.72;89.40;100582.72;5056405;28;20059;-59
2022/08/01 07:11:20;;;;;;;5.00;2.58;;;;;;;20.67;89.86;100577.84;5051844;28;20056;-57
2022/08/01 07:13:47;;;;;;;5.82;2.63;;;;;;;20.67;89.96;100579.69;5053328;28;20052;-60
2022/08/01 07:16:15;;;;;;;5.97;2.70;;;;;;;20.67;89.97;100583.19;5045843;28;20548;-60
2022/08/01 07:18:42;;;;;;;3.97;2.70;;;;;;;20.71;89.63;100581.00;5051790;28;20051;-63
2022/08/01 07:21:10;;;;;;;3.47;2.50;;;;;;;20.62;89.63;100585.47;5054401;28;20122;-60
2022/08/01 07:23:57;;;;;;;4.88;2.75;;;;;;;20.62;89.94;100589.97;5053107;28;20057;-60
2022/08/01 07:26:26;;;;;;;3.53;2.25;;;;;;;20.78;89.66;100581.25;5053879;28;20048;-60
2022/08/01 07:28:53;;;;;;;6.13;3.17;;;;;;;20.85;88.47;100587.63;5048335;28;20068;-60
2022/08/01 07:31:20;;;;;;;3.47;2.55;;;;;;;20.86;87.94;100595.50;5055953;28;20059;-60
2022/08/01 07:33:47;;;;;;;3.38;2.30;;;;;;;20.88;87.89;100596.19;5052853;28;20497;-59
2022/08/01 07:36:16;;;;;;;3.33;2.70;;;;;;;20.81;87.80;100591.63;5049714;28;20052;-58
2022/08/01 07:38:44;;;;;;;2.88;2.58;;;;;;;20.75;88.07;100590.41;5056224;28;20060;-60
2022/08/01 07:41:11;;;;;;;5.32;2.80;;;;;;;20.66;89.02;100599.38;5049314;28;20049;-57
2022/08/01 07:43:38;;;;;;;4.68;2.83;;;;;;;20.49;90.86;100601.09;5053610;28;20040;-60
2022/08/01 07:46:06;;;;;;;6.13;3.50;;;;;;;20.45;91.00;100605.06;5052514;28;20049;-59
2022/08/01 07:48:33;;;;;;;13.50;3.22;;;;;;;20.41;91.06;100604.50;5061984;28;20658;-60
2022/08/01 07:51:01;;;;;;;7.43;2.80;;;;;;;20.52;90.42;100605.28;5053715;28;20049;-60
2022/08/01 07:53:28;;;;;;;3.47;2.60;;;;;;;20.70;89.42;100608.75;5050368;28;20057;-60
2022/08/01 07:55:56;;;;;;;3.33;2.40;;;;;;;20.87;87.98;100609.72;5050936;28;20063;-60
2022/08/01 07:58:23;;;;;;;6.60;2.17;;;;;;;21.14;87.04;100609.53;5056840;28;20048;-59
2022/08/01 08:00:50;;;;;;;10.40;3.00;;;;;;;21.15;84.58;100611.22;5051974;28;20056;-60
2022/08/01 08:03:17;;;;;;;3.20;2.45;;;;;;;21.22;84.01;100614.94;5048566;28;20056;-60
2022/08/01 08:05:44;;;;;;;3.35;2.70;;;;;;;21.08;83.69;100612.88;5045452;28;20056;-58
2022/08/01 08:08:27;;;;;;;4.30;3.45;;;;;;;20.88;84.43;100614.06;5051154;28;20079;-60
2022/08/01 08:10:54;;;;;;;4.30;2.95;;;;;;;20.76;85.33;100618.88;5048999;28;20061;-60
2022/08/01 08:13:22;;;;;;;8.43;3.60;;;;;;;20.68;85.63;100616.13;5055215;28;20416;-57
2022/08/01 08:15:49;;;;;;;3.92;3.53;;;;;;;20.62;86.38;100622.91;5055632;28;20056;-59
2022/08/01 08:18:16;;;;;;;4.45;4.05;;;;;;;20.44;87.28;100616.72;5055401;28;20048;-60
2022/08/01 08:20:43;;;;;;;5.45;3.78;;;;;;;20.40;87.77;100623.41;5053309;28;20045;-60
2022/08/01 08:26:12;;;;;;;6.55;3.95;;;;;;;20.39;88.23;100622.53;5054860;28;20195;-60
2022/08/01 08:28:39;;;;;;;5.05;4.15;;;;;;;20.46;88.10;100625.44;5053199;28;20060;-60
2022/08/01 08:31:07;;;;;;;6.68;3.80;;;;;;;20.62;87.61;100627.44;5060131;28;20059;-60
2022/08/01 08:33:51;;;;;;;12.20;3.93;;;;;;;20.84;85.90;100623.41;5055931;28;20053;-60
2022/08/01 08:36:19;;;;;;;4.78;3.38;;;;;;;21.00;83.30;100623.53;5057471;28;21040;-58
2022/08/01 08:38:46;;;;;;;8.15;3.10;;;;;;;20.96;83.10;100624.84;5048720;28;20058;-60
2022/08/01 08:41:14;;;;;;;4.97;2.92;;;;;;;21.04;82.43;100629.41;5051672;28;20052;-60
2022/08/01 08:43:47;;;;;;;6.05;3.40;;;;;;;21.11;81.25;100623.25;5056092;28;20135;-59
2022/08/01 08:46:15;;;;;;;3.05;2.22;;;;;;;21.10;81.23;100631.44;5059948;28;20466;-57
2022/08/01 08:48:43;;;;;;;3.38;2.90;;;;;;;21.24;79.95;100634.34;5061818;23;20048;-78
2022/08/01 08:51:11;;;;;;;4.65;2.95;;;;;;;21.40;79.63;100630.97;5019729;28;20052;-78
2022/08/01 08:53:43;;;;;;;3.78;3.03;;;;;;;21.42;78.35;100634.31;5001321;28;20047;-78
2022/08/01 08:56:13;;;;;;;3.92;2.45;;;;;;;21.28;78.32;100636.72;5016044;28;20045;-79
2022/08/01 08:58:44;;;;;;;3.13;2.55;;;;;;;21.11;78.76;100641.16;5017801;28;20406;-76
2022/08/01 09:01:12;;;;;;;4.93;2.03;;;;;;;21.09;78.55;100643.16;5001198;28;20056;-76
2022/08/01 09:03:40;;;;;;;8.55;2.28;;;;;;;21.11;77.93;100644.66;5007837;28;20251;-76
2022/08/01 09:06:07;;;;;;;4.40;1.70;;;;;;;21.19;76.93;100646.56;5015450;28;20141;-76
2022/08/01 09:08:35;;;;;;;3.88;1.80;;;;;;;21.27;76.47;100645.78;5019636;28;20056;-76
2022/08/01 09:11:03;;;;;;;4.18;1.30;;;;;;;21.49;74.94;100643.41;5008568;28;20530;-76
2022/08/01 09:13:30;;;;;;;2.10;1.38;;;;;;;21.63;73.81;100641.13;5012744;28;20046;-75
2022/08/01 09:16:00;;;;;;;3.83;1.38;;;;;;;21.96;72.56;100642.88;5004534;28;20088;-76
2022/08/01 09:18:31;;;;;;;2.80;1.00;;;;;;;22.04;70.37;100643.91;5014368;28;20152;-76
2022/08/01 09:21:19;;;;;;;2.30;1.30;;;;;;;22.09;70.43;100645.09;5011052;28;20056;-76
2022/08/01 09:23:50;;;;;;;4.30;1.27;;;;;;;21.97;70.20;100651.75;5010402;28;20171;-76
2022/08/01 09:26:28;;;;;;;6.90;1.63;;;;;;;21.94;70.58;100655.63;4997405;28;20515;-76
2022/08/01 09:28:58;;;;;;;8.52;1.40;;;;;;;21.91;70.91;100658.63;5011530;28;20061;-76
2022/08/01 09:31:27;;;;;;;4.28;1.63;;;;;;;21.92;71.39;100659.44;5027674;28;20041;-76
2022/08/01 09:34:05;;;;;;;2.42;1.42;;;;;;;21.80;71.58;100675.00;5039530;28;20115;-76
2022/08/01 09:36:48;;;;;;;6.25;1.40;;;;;;;21.93;71.02;100661.13;5013150;28;20037;-76
2022/08/01 09:39:15;;;;;;;6.85;1.40;;;;;;;22.09;70.59;100677.25;5014120;28;20461;-76
2022/08/01 09:41:43;;;;;;;5.80;1.90;;;;;;;22.14;70.57;100676.78;5009101;28;20048;-76
2022/08/01 09:44:10;;;;;;;6.70;1.40;;;;;;;21.92;71.29;100668.31;5033550;28;20049;-76
2022/08/01 09:46:52;;;;;;;7.50;2.05;;;;;;;21.84;72.39;100672.81;5028227;28;20045;-76
2022/08/01 09:49:34;;;;;;;7.57;1.30;;;;;;;21.73;72.59;100677.47;5019409;28;20052;-76
2022/08/01 09:52:20;;;;;;;4.43;1.60;;;;;;;21.57;74.03;100680.09;5021652;28;20148;-76
2022/08/01 09:54:58;;;;;;;4.00;1.87;;;;;;;21.65;74.40;100682.78;4991676;28;20148;-76
2022/08/01 09:57:26;;;;;;;10.38;1.75;;;;;;;21.77;73.30;100687.88;4999498;28;20464;-76
2022/08/01 09:59:55;;;;;;;4.75;1.55;;;;;;;21.77;72.87;100690.56;5017273;28;20053;-76
2022/08/01 10:02:33;;;;;;;2.22;1.60;;;;;;;21.77;72.82;100695.94;5012775;28;20041;-78
2022/08/01 10:05:02;;;;;;;2.80;1.52;;;;;;;21.82;72.76;100689.06;5016982;28;20420;-76
2022/08/01 10:07:54;;;;;;;3.90;1.50;;;;;;;21.88;72.82;100693.78;5016318;28;20415;-76
2022/08/01 10:10:24;;;;;;;2.40;1.60;;;;;;;21.94;72.42;100697.66;5021736;28;20049;-76
2022/08/01 10:12:58;;;;;;;5.80;2.10;;;;;;;22.03;71.73;100696.69;5003614;28;20212;-76
2022/08/01 10:15:26;;;;;;;4.20;1.77;;;;;;;22.07;72.28;100707.94;5005022;28;20060;-74
2022/08/01 10:18:06;;;;;;;3.88;2.65;;;;;;;21.86;72.62;100705.66;5026611;28;20069;-74
2022/08/01 10:20:43;;;;;;;4.68;2.58;;;;;;;21.82;72.99;100699.78;5016209;28;20088;-74
2022/08/01 10:23:10;;;;;;;1.50;1.33;;;;;;;21.96;73.33;100701.84;5038652;28;20085;-75
2022/08/01 10:25:40;;;;;;;4.28;1.60;;;;;;;21.98;72.74;100715.94;5016386;28;20475;-74
2022/08/01 10:28:16;;;;;;;2.45;1.42;;;;;;;21.93;73.09;100706.69;5013494;28;20054;-75
2022/08/01 10:30:48;;;;;;;2.28;1.63;;;;;;;22.06;72.44;100709.75;5018726;28;20044;-75
2022/08/01 10:33:16;;;;;;;4.15;1.60;;;;;;;21.92;73.09;100716.56;5042600;28;20060;-75
2022/08/01 10:36:04;;;;;;;2.75;1.60;;;;;;;21.67;74.38;100712.13;5013003;28;20052;-75
2022/08/01 10:38:35;;;;;;;3.28;2.03;;;;;;;21.68;74.58;100717.31;5010458;28;20140;-75
2022/08/01 10:41:04;;;;;;;4.03;1.60;;;;;;;21.53;75.24;100710.88;4989523;28;20049;-75
2022/08/01 10:43:32;;;;;;;2.33;1.67;;;;;;;21.48;75.84;100714.03;5022884;28;20419;-75
2022/08/01 10:46:03;;;;;;;3.05;1.42;;;;;;;21.71;75.48;100713.50;5005430;28;20044;-75
2022/08/01 10:48:42;;;;;;;4.20;1.63;;;;;;;21.81;74.41;100711.53;5013424;28;20042;-75
2022/08/01 10:51:11;;;;;;;3.80;1.33;;;;;;;21.91;73.63;100722.09;4979086;28;20045;-75
2022/08/01 10:53:52;;;;;;;4.20;1.48;;;;;;;22.00;73.44;100719.28;5013854;28;20077;-76
2022/08/01 10:56:24;;;;;;;4.13;1.25;;;;;;;21.99;72.78;100716.78;5009814;28;20056;-76
2022/08/01 10:59:03;;;;;;;2.53;1.30;;;;;;;21.96;72.61;100712.56;5035135;28;20045;-76
2022/08/01 11:01:33;;;;;;;1.75;1.30;;;;;;;21.99;72.05;100716.78;4994995;28;20048;-75
2022/08/01 11:04:12;;;;;;;4.18;1.13;;;;;;;21.93;72.37;100717.41;5022823;28;20116;-75
2022/08/01 11:07:04;;;;;;;6.38;1.20;;;;;;;21.95;73.54;100720.78;5035059;28;20388;-76
2022/08/01 11:09:43;;;;;;;1.45;1.10;;;;;;;22.15;72.55;100724.88;5019910;28;20121;-75
2022/08/01 11:12:18;;;;;;;3.05;1.38;;;;;;;22.29;71.97;100722.59;4982461;28;20046;-75
2022/08/01 11:15:00;;;;;;;4.38;1.42;;;;;;;22.42;71.95;100731.81;5012957;28;20049;-75
2022/08/01 11:17:49;;;;;;;7.10;1.20;;;;;;;22.62;70.89;100731.53;5027264;28;20064;-75
2022/08/01 11:20:30;;;;;;;4.05;1.38;;;;;;;22.66;69.79;100731.03;5020463;28;20041;-75
2022/08/01 11:23:00;;;;;;;1.30;1.00;;;;;;;22.52;69.66;100731.69;5041151;28;20057;-75
2022/08/01 11:25:38;;;;;;;2.38;1.20;;;;;;;22.07;71.20;100732.06;5012038;28;20072;-75
2022/08/01 11:28:26;;;;;;;6.97;1.70;;;;;;;21.96;71.95;100733.19;5017722;28;20136;-76
2022/08/01 11:31:07;;;;;;;11.48;1.70;;;;;;;21.82;73.41;100753.38;5023051;28;20057;-75
2022/08/01 11:33:42;;;;;;;11.95;1.45;;;;;;;21.63;75.63;100756.31;5027443;28;20053;-76
2022/08/01 11:36:13;;;;;;;3.88;1.30;;;;;;;21.55;76.86;100764.28;5003867;28;20144;-75
2022/08/01 11:38:45;;;;;;;6.90;1.10;;;;;;;21.33;79.21;100761.13;5025096;28;20045;-76
2022/08/01 11:41:23;;;;;;;1.27;1.13;;;;;;;21.45;78.68;100757.22;5008697;28;20224;-76
2022/08/01 11:44:13;;;;;;;1.58;1.38;;;;;;;21.60;78.71;100759.28;5032845;28;20064;-75